Share

Bonifay, FL (32425)

11:29 PM CDT on April 23, 2014 (GMT -0500)
Greenhead (KFLCHIPL3) Elev 122 ft | 30.51 °N, 85.64 °W | Change Station
Active Advisory: Flood Warning

Current weather conditions updated 54 seconds ago

Clear
Clear
63.0 °F
Feels Like 63.0 °F
N
0.0
Wind Variable Wind from SE
Gusts 0.0 mph
Sunrise 6:06 AM
Sunset 7:16 PM
Moon Waning Crescent

Tomorrow is forecast to be Cooler than today.

Pressure 29.95 in
Visibility 7.0 miles
Clouds Clear
Dew Point 51 °F
Humidity 66%
Rainfall 0.00 in
Snow Depth Not available.
UV 0 out of 16
Pollen 8.20 out of 12
Air Quality Not available.
Flu Activity Sporadic
METAR K54J 240415Z AUTO 00000KT 7SM CLR 17/17 A2995 RMK AO2 T01740170

More Conditions Fewer Conditions

Pressure 29.95 in
Visibility 7.0 miles
Clouds Clear
Dew Point 51 °F
Humidity 66%
Rainfall 0.00 in
Snow Depth Not available.
UV 0 out of 16
Pollen 8.20 out of 12
Air Quality Not available.
Flu Activity Sporadic
METAR K54J 240415Z AUTO 00000KT 7SM CLR 17/17 A2995 RMK AO2 T01740170

More Conditions Fewer Conditions

10-Day Weather Forecast

Almanac

Astronomy

Apr. 23, 2014 Rise Set
Actual Time 6:06 AM CDT 7:16 PM CDT
Civil Twilight 5:41 AM CDT 7:41 PM CDT
Nautical Twilight 5:11 AM CDT 8:11 PM CDT
Astronomical Twilight 4:40 AM CDT 8:42 PM CDT
Moon 2:13 AM CDT (4/23) 1:46 PM CDT (4/23)
Length of Visible Light 13h 59m
Length of Day
13h 09m
Tomorrow will be 1m 40s longer.
Waning Crescent, 29% of the Moon is Illuminated
Apr 24
Waning Crescent
Apr 29
New
May 6
First Quarter
May 14
Full
May 21
Last Quarter

Today's Extremes

State Highs State Lows

Community

  • Stacked
    Stacked
  • Balance
    Balance
  • Nestled In
    Nestled In
  • Stunning Sunrise
    Stunning Sunrise
  • spring flowers
    spring flowers

WunderPhotos

Upload Photos

1,704,560 photos uploaded!

WunderBlogs® & News

Nearby

Snow Depth

Station Depth Elevation
No new snow has been reported.

Coastal Water Temperatures

Place Temperature
No Stations Reporting

Earthquake Activity

City Distance Mag. Time & Date
No recent earthquake activity has been reported nearby.
Minimum magnitude displayed is 2.5.

Nearby Weather Stations

Station Location Temp. Dew Point Humidity Wind Precip. Elev Updated Type
Greenhead, Chipley, FL 63.0 °F 51 °F 66% SE  at  0.0 mph 0.00 in / hr 122 ft 11:28 PM CDT Normal
Adam Beasley's Backyard Weather, Geneva, AL 62.2 °F 62 °F 99% WSW  at  0.0 mph - / hr 226 ft 11:25 PM CDT Normal
County Rd. 85, Hartford, AL 65.7 °F 57 °F 74% South  at  0.0 mph 0.00 in / hr 290 ft 11:29 PM CDT Rapid Fire

Show More Stations Show Fewer Stations

What do you think?

We're not finished. Please let us know what you like, what you don't like, and what you are still missing.